Time;durP1;ratioP1;P1;durP2;ratioP2;P2;SDS_P1;SDS_P2;PMS_P1;PMS_P2;Temp;Humidity;BMP_temperature;BMP_pressure;BME280_temperature;BME280_humidity;BME280_pressure;Samples;Min_cycle;Max_cycle;Signal;HPM_P1;HPM_P2
2022/08/25 00:00:43;;;;;;;5.63;2.28;;;22.50;89.10;;;;;;5069867;28;19963;-48
2022/08/25 00:03:10;;;;;;;7.90;1.85;;;22.40;88.90;;;;;;5069618;28;20401;-47
2022/08/25 00:05:36;;;;;;;4.72;2.20;;;22.30;88.90;;;;;;5068935;28;20044;-48
2022/08/25 00:08:02;;;;;;;;;;;22.30;88.90;;;;;;5070104;28;20129;-47
2022/08/25 00:10:28;;;;;;;5.55;2.22;;;22.20;88.70;;;;;;5069867;28;20232;-47
2022/08/25 00:12:54;;;;;;;12.68;2.60;;;22.10;88.90;;;;;;5067959;28;20249;-46
2022/08/25 00:15:21;;;;;;;;;;;22.10;89.10;;;;;;5068666;28;20036;-47
2022/08/25 00:17:47;;;;;;;;;;;22.00;89.40;;;;;;5068863;28;19916;-47
2022/08/25 00:20:14;;;;;;;6.30;2.67;;;21.90;89.60;;;;;;5069708;28;19963;-47
2022/08/25 00:22:40;;;;;;;2.65;2.45;;;21.80;89.50;;;;;;5073977;28;20033;-47
2022/08/25 00:25:06;;;;;;;;;;;21.80;89.90;;;;;;5072193;28;20039;-47
2022/08/25 00:27:31;;;;;;;8.60;3.08;;;21.80;90.10;;;;;;5074018;28;19927;-47
2022/08/25 00:29:57;;;;;;;4.57;2.38;;;21.70;90.10;;;;;;5073786;28;20033;-47
2022/08/25 00:32:24;;;;;;;;;;;21.70;90.20;;;;;;5072767;28;20494;-46
2022/08/25 00:34:49;;;;;;;6.68;2.72;;;21.60;90.40;;;;;;5053640;28;19920;-47
2022/08/25 00:37:15;;;;;;;;;;;21.50;90.20;;;;;;5069247;28;20089;-47
2022/08/25 00:39:41;;;;;;;3.28;2.75;;;21.50;90.30;;;;;;5064118;28;19917;-47
2022/08/25 00:42:07;;;;;;;4.97;2.67;;;21.50;90.20;;;;;;5053946;28;20040;-47
2022/08/25 00:44:34;;;;;;;5.50;2.78;;;21.50;90.30;;;;;;5069016;28;20440;-47
2022/08/25 00:47:01;;;;;;;5.30;2.53;;;21.40;90.20;;;;;;5073464;28;20544;-48
2022/08/25 00:49:40;;;;;;;3.00;2.33;;;21.40;90.20;;;;;;5073484;28;20052;-47
2022/08/25 00:52:14;;;;;;;4.05;3.08;;;21.30;90.20;;;;;;5073397;28;20381;-46
2022/08/25 00:54:49;;;;;;;6.88;2.58;;;21.30;90.30;;;;;;5073239;28;20041;-47
2022/08/25 00:57:19;;;;;;;10.88;2.90;;;21.20;90.20;;;;;;5053578;28;20045;-47
2022/08/25 00:59:45;;;;;;;4.40;2.50;;;21.20;90.30;;;;;;5053518;28;20071;-47
2022/08/25 01:02:11;;;;;;;;;;;21.20;90.30;;;;;;5053831;28;20073;-51
2022/08/25 01:04:37;;;;;;;8.50;2.42;;;21.20;90.30;;;;;;5053275;28;19938;-48
2022/08/25 01:07:03;;;;;;;;;;;21.10;90.20;;;;;;5053409;28;20041;-47
2022/08/25 01:09:31;;;;;;;15.60;2.80;;;21.10;90.30;;;;;;5053189;28;19940;-46
2022/08/25 01:11:57;;;;;;;5.10;2.00;;;21.10;90.20;;;;;;5053327;28;20037;-46
2022/08/25 01:14:24;;;;;;;7.60;3.05;;;21.10;90.20;;;;;;5053279;28;20033;-48
2022/08/25 01:16:51;;;;;;;3.78;2.47;;;21.00;90.10;;;;;;5052859;28;20040;-48
2022/08/25 01:19:18;;;;;;;5.72;3.08;;;21.00;90.20;;;;;;5052722;28;20131;-48
2022/08/25 01:21:49;;;;;;;5.40;2.45;;;21.00;90.20;;;;;;5053008;28;20421;-47
2022/08/25 01:24:49;;;;;;;3.20;2.15;;;21.00;90.20;;;;;;5052811;28;20128;-48
2022/08/25 01:27:15;;;;;;;3.33;2.55;;;21.00;90.30;;;;;;5049482;28;20048;-50
2022/08/25 01:29:40;;;;;;;;;;;20.90;90.20;;;;;;5071133;28;20036;-48
2022/08/25 01:32:09;;;;;;;2.88;2.20;;;20.90;90.20;;;;;;5069378;28;19924;-48
2022/08/25 01:34:37;;;;;;;4.80;2.50;;;20.80;90.00;;;;;;5072256;28;20029;-52
2022/08/25 01:37:03;;;;;;;4.10;2.75;;;20.80;90.20;;;;;;5072247;28;20048;-48
2022/08/25 01:39:32;;;;;;;5.78;1.90;;;20.80;90.20;;;;;;5072619;28;20036;-48
2022/08/25 01:42:10;;;;;;;7.07;1.67;;;20.70;90.20;;;;;;5071741;28;20044;-51
2022/08/25 01:44:43;;;;;;;4.40;2.03;;;20.70;90.30;;;;;;5071953;28;20047;-48
2022/08/25 01:47:10;;;;;;;2.40;1.70;;;20.60;90.30;;;;;;5072437;28;20199;-50
2022/08/25 01:49:36;;;;;;;8.18;2.20;;;20.50;90.30;;;;;;5056761;28;20040;-51
2022/08/25 01:52:19;;;;;;;5.30;2.13;;;20.40;90.30;;;;;;5052325;28;20037;-48
2022/08/25 01:54:45;;;;;;;5.10;2.83;;;20.40;90.40;;;;;;5051846;28;20087;-49
2022/08/25 01:57:10;;;;;;;;;;;20.40;90.40;;;;;;5052469;28;20041;-48
2022/08/25 01:59:36;;;;;;;4.05;2.10;;;20.30;90.50;;;;;;5052378;28;20004;-48
2022/08/25 02:02:03;;;;;;;3.58;1.70;;;20.30;90.50;;;;;;5070177;28;20067;-48
2022/08/25 02:04:30;;;;;;;2.78;2.53;;;20.20;90.60;;;;;;5072200;28;20068;-49
2022/08/25 02:06:58;;;;;;;6.35;2.72;;;20.20;90.60;;;;;;5071995;28;20037;-51
2022/08/25 02:09:23;;;;;;;5.78;2.55;;;20.20;90.50;;;;;;5071879;28;20036;-47
2022/08/25 02:11:49;;;;;;;;;;;20.20;90.50;;;;;;5072843;28;20067;-47
2022/08/25 02:14:17;;;;;;;5.05;2.30;;;20.20;90.50;;;;;;5071489;28;19952;-47
2022/08/25 02:16:47;;;;;;;3.45;2.15;;;20.00;90.50;;;;;;5072168;28;20470;-47
2022/08/25 02:19:14;;;;;;;6.95;2.58;;;20.00;90.70;;;;;;5071126;28;20037;-51
2022/08/25 02:21:39;;;;;;;4.78;2.20;;;19.90;90.70;;;;;;5070494;28;20541;-47
2022/08/25 02:24:06;;;;;;;3.47;2.45;;;19.90;90.80;;;;;;5071172;28;20044;-46
2022/08/25 02:26:32;;;;;;;4.97;2.20;;;19.90;90.90;;;;;;5071459;28;20075;-48
2022/08/25 02:28:57;;;;;;;;;;;19.80;90.90;;;;;;5071599;28;20567;-47
2022/08/25 02:31:24;;;;;;;4.00;2.17;;;19.80;91.10;;;;;;5071326;28;19924;-50
2022/08/25 02:33:50;;;;;;;6.93;2.35;;;19.80;91.00;;;;;;5070576;28;20545;-47
2022/08/25 02:36:17;;;;;;;3.03;2.42;;;19.70;91.00;;;;;;5069972;28;20123;-49
2022/08/25 02:38:42;;;;;;;4.60;2.30;;;19.70;90.90;;;;;;5071248;28;20425;-48
2022/08/25 02:41:14;;;;;;;5.75;1.95;;;19.60;90.90;;;;;;5071090;28;20062;-49
2022/08/25 02:43:41;;;;;;;5.78;2.38;;;19.50;91.00;;;;;;5069038;28;20044;-47
2022/08/25 02:46:07;;;;;;;5.63;2.65;;;19.40;91.10;;;;;;5071139;28;20078;-52
2022/08/25 02:48:32;;;;;;;;;;;19.30;91.30;;;;;;5071587;28;20037;-47
2022/08/25 02:51:00;;;;;;;6.15;2.20;;;19.30;91.60;;;;;;5070184;28;19928;-47
2022/08/25 02:53:27;;;;;;;4.55;2.63;;;19.40;91.40;;;;;;5070753;28;20405;-47
2022/08/25 02:55:53;;;;;;;5.70;2.38;;;19.30;91.20;;;;;;5070736;28;20443;-48
2022/08/25 02:58:19;;;;;;;3.92;2.42;;;19.30;91.10;;;;;;5070928;28;20032;-47
2022/08/25 03:00:45;;;;;;;2.75;2.10;;;19.30;91.20;;;;;;5070656;28;20037;-47
2022/08/25 03:03:11;;;;;;;6.03;2.10;;;19.30;91.20;;;;;;5070380;28;20036;-50
2022/08/25 03:05:37;;;;;;;7.10;2.58;;;19.40;91.30;;;;;;5070209;28;20051;-47
2022/08/25 03:08:03;;;;;;;;;;;19.40;91.30;;;;;;5071142;28;20512;-49
2022/08/25 03:10:29;;;;;;;7.22;2.80;;;19.50;91.30;;;;;;5070578;28;19923;-48
2022/08/25 03:12:55;;;;;;;7.40;2.22;;;19.40;91.00;;;;;;5070460;28;20028;-47
2022/08/25 03:15:20;;;;;;;;;;;19.50;91.00;;;;;;5070928;28;20033;-48
2022/08/25 03:17:49;;;;;;;2.55;2.22;;;19.50;91.00;;;;;;5070844;28;19970;-47
2022/08/25 03:20:15;;;;;;;2.75;1.98;;;19.50;90.80;;;;;;5069841;28;20036;-48
2022/08/25 03:22:41;;;;;;;3.70;1.88;;;19.50;91.10;;;;;;5070531;28;20086;-47
2022/08/25 03:27:52;;;;;;;2.10;1.85;;;19.50;91.20;;;;;;5070373;28;19921;-47
2022/08/25 03:30:17;;;;;;;;;;;19.50;90.90;;;;;;5070728;28;20052;-47
2022/08/25 03:32:43;;;;;;;4.38;2.08;;;19.50;90.90;;;;;;5069401;28;19921;-48
2022/08/25 03:35:08;;;;;;;;;;;19.50;90.80;;;;;;5070446;28;20485;-51
2022/08/25 03:37:35;;;;;;;4.40;2.70;;;19.50;90.90;;;;;;5070298;28;20285;-47
2022/08/25 03:40:03;;;;;;;4.18;2.30;;;19.50;90.80;;;;;;5070390;28;20036;-47
2022/08/25 03:42:29;;;;;;;6.95;2.13;;;19.50;90.80;;;;;;5069896;28;20119;-48
2022/08/25 03:44:54;;;;;;;4.75;2.25;;;19.40;90.90;;;;;;5053164;28;20116;-48
2022/08/25 03:47:20;;;;;;;6.28;2.72;;;19.30;91.00;;;;;;5053498;28;20044;-46
2022/08/25 03:49:46;;;;;;;2.58;2.38;;;19.20;91.00;;;;;;5070328;28;20115;-47
2022/08/25 03:52:12;;;;;;;3.95;2.47;;;19.00;91.10;;;;;;5070632;28;20037;-48
2022/08/25 03:54:37;;;;;;;3.88;1.92;;;18.90;91.30;;;;;;5069901;28;20043;-47
2022/08/25 03:57:03;;;;;;;8.48;2.53;;;18.70;91.50;;;;;;5070444;28;20036;-48
2022/08/25 03:59:29;;;;;;;2.50;2.20;;;18.70;91.70;;;;;;5067264;28;20033;-49
2022/08/25 04:01:54;;;;;;;22.52;3.33;;;18.70;91.90;;;;;;5049962;28;20076;-47
2022/08/25 04:04:20;;;;;;;4.72;2.83;;;18.70;92.10;;;;;;5050028;28;20117;-47
2022/08/25 04:06:46;;;;;;;7.65;2.42;;;18.70;92.10;;;;;;5050282;28;20033;-47
2022/08/25 04:09:12;;;;;;;7.32;2.33;;;18.70;92.10;;;;;;5065497;28;20069;-46
2022/08/25 04:11:38;;;;;;;3.35;2.42;;;18.70;92.10;;;;;;5049967;28;20041;-48
2022/08/25 04:14:04;;;;;;;5.15;2.83;;;18.70;92.20;;;;;;5055637;28;20055;-47
2022/08/25 04:16:33;;;;;;;7.18;3.15;;;18.70;92.30;;;;;;5069125;28;20138;-47
2022/08/25 04:19:01;;;;;;;4.97;3.08;;;18.70;92.30;;;;;;5069710;28;20490;-46
2022/08/25 04:21:27;;;;;;;6.15;2.75;;;18.60;92.40;;;;;;5069742;28;20040;-47
2022/08/25 04:23:55;;;;;;;4.75;3.05;;;18.60;92.50;;;;;;5069399;28;20123;-47
2022/08/25 04:26:36;;;;;;;4.13;2.55;;;18.60;92.50;;;;;;5067882;28;20051;-47
2022/08/25 04:29:04;;;;;;;5.30;1.85;;;18.60;92.70;;;;;;5069818;28;20051;-48
2022/08/25 04:31:30;;;;;;;4.50;2.55;;;18.60;92.70;;;;;;5069723;28;20438;-47
2022/08/25 04:33:56;;;;;;;4.25;2.58;;;18.70;92.70;;;;;;5069470;28;20033;-47
2022/08/25 04:36:22;;;;;;;2.88;2.17;;;18.70;92.70;;;;;;5069393;28;20037;-47
2022/08/25 04:38:49;;;;;;;6.28;2.47;;;18.70;92.70;;;;;;5069269;28;20054;-47
2022/08/25 04:41:18;;;;;;;6.63;2.75;;;18.70;92.70;;;;;;5069074;28;20045;-51
2022/08/25 04:43:44;;;;;;;5.15;2.47;;;18.60;92.80;;;;;;5068529;28;20036;-48
2022/08/25 04:46:22;;;;;;;4.97;2.13;;;18.60;92.90;;;;;;5069394;28;20641;-46
2022/08/25 04:48:48;;;;;;;7.65;2.85;;;18.60;93.00;;;;;;5069239;28;20509;-46
2022/08/25 04:51:22;;;;;;;7.22;3.38;;;18.50;93.00;;;;;;5069438;28;20042;-49
2022/08/25 04:53:48;;;;;;;9.23;2.95;;;18.50;93.20;;;;;;5068720;28;20032;-50
2022/08/25 04:56:15;;;;;;;9.38;3.47;;;18.50;93.30;;;;;;5069069;28;20059;-46
2022/08/25 04:58:42;;;;;;;5.80;3.35;;;18.50;93.40;;;;;;5069056;28;20116;-46
2022/08/25 05:01:15;;;;;;;3.60;2.58;;;18.50;93.50;;;;;;5069144;28;20067;-46
2022/08/25 05:03:41;;;;;;;4.30;3.90;;;18.50;93.60;;;;;;5068959;28;20051;-47
2022/08/25 05:06:07;;;;;;;6.68;3.17;;;18.50;93.60;;;;;;5068754;28;20127;-46
2022/08/25 05:08:33;;;;;;;10.98;3.22;;;18.50;93.70;;;;;;5072497;28;20231;-46
2022/08/25 05:11:08;;;;;;;4.55;3.55;;;18.50;93.80;;;;;;5073018;28;20063;-47
2022/08/25 05:13:34;;;;;;;7.78;2.70;;;18.50;93.90;;;;;;5072480;28;20127;-46
2022/08/25 05:16:01;;;;;;;6.25;3.17;;;18.50;94.00;;;;;;5072852;28;20049;-47
2022/08/25 05:18:29;;;;;;;7.07;3.10;;;18.60;94.10;;;;;;5072818;28;20444;-46
2022/08/25 05:20:56;;;;;;;3.53;3.10;;;18.60;94.20;;;;;;5072398;28;20051;-47
2022/08/25 05:23:23;;;;;;;48.03;4.90;;;18.60;94.30;;;;;;5072417;28;20405;-47
2022/08/25 05:25:50;;;;;;;4.57;2.97;;;18.70;94.30;;;;;;5072868;28;20485;-46
2022/08/25 05:28:18;;;;;;;15.55;3.78;;;18.70;94.40;;;;;;5072613;28;20462;-47
2022/08/25 05:30:43;;;;;;;6.20;3.40;;;18.60;94.40;;;;;;5072599;28;20040;-46
2022/08/25 05:33:10;;;;;;;4.13;3.42;;;18.70;94.60;;;;;;5072992;28;20282;-47
2022/08/25 05:35:36;;;;;;;5.95;3.90;;;18.70;94.70;;;;;;5072221;28;20036;-47
2022/08/25 05:38:02;;;;;;;9.40;3.65;;;18.70;94.80;;;;;;5072714;28;20504;-47
2022/08/25 05:40:29;;;;;;;4.90;3.33;;;18.70;94.80;;;;;;5072852;28;20068;-46
2022/08/25 05:42:54;;;;;;;;;;;18.80;94.80;;;;;;5072809;28;20055;-46
2022/08/25 05:45:20;;;;;;;5.47;4.00;;;18.80;94.90;;;;;;5072658;28;20385;-46
2022/08/25 05:47:45;;;;;;;4.25;3.50;;;18.80;94.90;;;;;;5063266;28;20033;-46
2022/08/25 05:50:11;;;;;;;11.80;3.65;;;18.80;94.80;;;;;;5051990;28;20029;-47
2022/08/25 05:52:37;;;;;;;3.80;3.00;;;18.90;95.00;;;;;;5052692;28;20490;-47
2022/08/25 05:55:03;;;;;;;8.13;3.95;;;19.00;95.10;;;;;;5052142;28;20033;-47
2022/08/25 05:57:29;;;;;;;3.70;3.42;;;19.10;95.20;;;;;;5052310;28;20545;-47
2022/08/25 05:59:54;;;;;;;2.83;2.50;;;19.10;95.20;;;;;;5062005;28;20036;-47
2022/08/25 06:05:04;;;;;;;9.38;2.53;;;19.20;95.20;;;;;;5074413;28;20083;-46
2022/08/25 06:07:30;;;;;;;8.35;3.38;;;19.30;94.90;;;;;;5078753;28;20080;-46
2022/08/25 06:09:55;;;;;;;11.45;3.20;;;19.40;94.90;;;;;;5055950;28;20045;-46
2022/08/25 06:12:21;;;;;;;6.50;2.33;;;19.50;94.80;;;;;;5054521;28;20045;-47
2022/08/25 06:14:48;;;;;;;;;;;19.60;94.60;;;;;;5104096;28;20045;-47
2022/08/25 06:17:14;;;;;;;6.15;2.72;;;19.70;94.70;;;;;;5070937;28;19942;-47
2022/08/25 06:19:39;;;;;;;;;;;19.80;94.60;;;;;;5071559;28;20519;-46
2022/08/25 06:22:05;;;;;;;13.60;3.15;;;19.90;94.90;;;;;;5071735;28;19968;-46
2022/08/25 06:24:31;;;;;;;;;;;20.00;94.70;;;;;;5071707;28;20043;-47
2022/08/25 06:26:57;;;;;;;4.53;3.00;;;20.10;94.80;;;;;;5071601;28;19917;-48
2022/08/25 06:29:23;;;;;;;3.42;2.95;;;20.20;94.20;;;;;;5071287;28;20043;-46
2022/08/25 06:31:49;;;;;;;5.55;2.80;;;20.30;94.10;;;;;;5067441;28;20037;-46
2022/08/25 06:34:15;;;;;;;5.53;2.50;;;20.40;94.00;;;;;;5070594;28;20070;-49
2022/08/25 06:36:41;;;;;;;5.18;2.80;;;20.50;93.90;;;;;;5061827;28;20040;-47
2022/08/25 06:39:07;;;;;;;5.30;2.30;;;20.60;93.70;;;;;;5051435;28;20418;-46
2022/08/25 06:41:33;;;;;;;9.45;3.08;;;20.70;93.60;;;;;;5067866;28;20127;-48
2022/08/25 06:43:59;;;;;;;;;;;20.80;93.40;;;;;;5071339;28;20498;-47
2022/08/25 06:46:26;;;;;;;3.78;2.40;;;20.90;93.40;;;;;;5070853;28;19916;-47
2022/08/25 06:48:53;;;;;;;4.82;3.10;;;21.00;93.10;;;;;;5067857;28;20041;-46
2022/08/25 06:51:20;;;;;;;5.55;2.17;;;21.10;93.00;;;;;;5071236;28;20493;-47
2022/08/25 06:53:47;;;;;;;8.35;2.00;;;21.20;92.60;;;;;;5070845;28;20501;-47
2022/08/25 06:56:14;;;;;;;3.13;2.72;;;21.30;92.60;;;;;;5071247;28;20040;-47
2022/08/25 06:58:40;;;;;;;9.25;3.05;;;21.40;92.30;;;;;;5074365;28;20032;-46
2022/08/25 07:01:10;;;;;;;;;;;21.50;91.80;;;;;;5078242;28;20043;-48
2022/08/25 07:03:35;;;;;;;3.80;2.60;;;21.50;91.70;;;;;;5070462;28;20460;-46
2022/08/25 07:06:01;;;;;;;;;;;21.60;91.70;;;;;;5071429;28;20115;-47
2022/08/25 07:08:27;;;;;;;5.00;2.90;;;21.70;91.50;;;;;;5070939;28;19917;-46
2022/08/25 07:10:52;;;;;;;;;;;21.80;91.70;;;;;;5071183;28;20513;-47
2022/08/25 07:13:18;;;;;;;4.75;2.90;;;21.90;91.50;;;;;;5070876;28;20546;-47
2022/08/25 07:15:43;;;;;;;;;;;22.00;91.40;;;;;;5070495;28;20052;-46
2022/08/25 07:18:10;;;;;;;5.38;2.97;;;22.00;91.40;;;;;;5070030;28;19916;-47
2022/08/25 07:20:37;;;;;;;6.45;2.28;;;22.10;91.30;;;;;;5070626;28;20041;-46
2022/08/25 07:23:03;;;;;;;7.65;2.95;;;22.20;91.20;;;;;;5069357;28;20047;-48
2022/08/25 07:25:29;;;;;;;;;;;22.30;91.20;;;;;;5071159;28;20040;-47
2022/08/25 07:27:54;;;;;;;11.68;3.22;;;22.40;91.40;;;;;;5070791;28;19916;-46
2022/08/25 07:30:20;;;;;;;;;;;22.40;91.10;;;;;;5070469;28;20051;-47
2022/08/25 07:32:46;;;;;;;11.18;2.40;;;22.60;91.00;;;;;;5070421;28;19920;-46
2022/08/25 07:35:14;;;;;;;;;;;22.60;91.10;;;;;;5070251;28;20470;-48
2022/08/25 07:37:44;;;;;;;5.72;3.75;;;22.70;91.00;;;;;;5069239;28;20374;-46
2022/08/25 07:40:23;;;;;;;11.05;3.28;;;22.80;91.00;;;;;;5069846;28;20120;-47
2022/08/25 07:42:51;;;;;;;9.45;3.03;;;22.90;91.10;;;;;;5062074;28;20820;-47
2022/08/25 07:45:17;;;;;;;5.85;2.55;;;23.00;90.90;;;;;;5070003;28;20501;-46
2022/08/25 07:47:43;;;;;;;7.70;2.72;;;23.20;91.10;;;;;;5069929;28;20032;-47
2022/08/25 07:50:11;;;;;;;;;;;23.30;91.00;;;;;;5070521;28;20109;-47
2022/08/25 07:52:37;;;;;;;5.63;2.53;;;23.40;90.70;;;;;;5084871;28;19942;-49
2022/08/25 07:55:04;;;;;;;7.60;2.83;;;23.50;90.80;;;;;;5069213;28;20036;-48
2022/08/25 07:57:29;;;;;;;5.50;3.08;;;23.60;90.90;;;;;;5069036;28;20044;-47
2022/08/25 07:59:55;;;;;;;;;;;23.60;90.90;;;;;;5069762;28;20040;-47
2022/08/25 08:02:21;;;;;;;7.93;2.40;;;23.70;90.60;;;;;;5069568;28;19998;-48
2022/08/25 08:04:48;;;;;;;4.07;2.38;;;23.80;90.70;;;;;;5069198;28;20041;-47
2022/08/25 08:07:25;;;;;;;7.63;2.47;;;23.90;90.60;;;;;;5069410;28;20040;-49
2022/08/25 08:09:51;;;;;;;;;;;23.90;90.70;;;;;;5069720;28;20055;-49
2022/08/25 08:12:17;;;;;;;4.57;2.30;;;24.00;90.40;;;;;;5070070;28;19942;-48
2022/08/25 08:14:44;;;;;;;4.68;2.45;;;24.10;90.50;;;;;;5069246;28;20079;-48
2022/08/25 08:17:10;;;;;;;3.88;2.33;;;24.20;90.40;;;;;;5068573;28;20068;-48
2022/08/25 08:19:36;;;;;;;9.15;2.78;;;24.20;90.30;;;;;;5067201;28;20062;-47
2022/08/25 08:22:04;;;;;;;7.53;3.03;;;24.30;90.30;;;;;;5067977;28;20087;-47
2022/08/25 08:24:37;;;;;;;4.22;1.90;;;24.40;90.10;;;;;;5065929;28;20045;-51
2022/08/25 08:27:04;;;;;;;8.77;3.00;;;24.50;90.00;;;;;;5068883;28;20053;-50
2022/08/25 08:29:30;;;;;;;9.40;2.28;;;24.60;89.50;;;;;;5069302;28;20040;-48
2022/08/25 08:31:55;;;;;;;6.55;2.50;;;24.70;89.70;;;;;;5067817;28;20618;-47
2022/08/25 08:34:22;;;;;;;5.10;2.63;;;24.90;89.40;;;;;;5068686;28;20620;-47
2022/08/25 08:36:48;;;;;;;3.65;2.28;;;25.00;88.60;;;;;;5069328;28;20033;-47
2022/08/25 08:39:14;;;;;;;5.20;2.40;;;25.10;88.50;;;;;;5069808;28;20032;-46
2022/08/25 08:44:41;;;;;;;;;;;25.40;87.90;;;;;;5072063;28;20044;-48
2022/08/25 08:47:36;;;;;;;7.82;2.13;;;25.50;87.90;;;;;;5073011;28;19962;-48
2022/08/25 08:50:04;;;;;;;53.85;5.88;;;25.70;87.60;;;;;;5072349;28;20040;-47
2022/08/25 08:52:46;;;;;;;7.75;2.25;;;25.70;87.50;;;;;;5073192;28;20601;-47
2022/08/25 08:55:23;;;;;;;8.35;2.58;;;25.80;86.90;;;;;;5073280;28;20064;-47
2022/08/25 08:57:51;;;;;;;4.47;2.38;;;25.90;86.40;;;;;;5072761;28;20044;-46
2022/08/25 09:00:17;;;;;;;5.40;1.65;;;25.90;86.80;;;;;;5074018;28;20453;-47
2022/08/25 09:02:58;;;;;;;6.18;2.22;;;26.10;86.40;;;;;;5072058;28;20511;-47
2022/08/25 09:05:27;;;;;;;8.77;2.22;;;26.10;86.10;;;;;;5071446;28;20119;-47
2022/08/25 09:07:58;;;;;;;3.75;1.48;;;26.20;86.20;;;;;;5069957;28;20436;-47
2022/08/25 09:10:31;;;;;;;11.45;2.35;;;26.30;84.90;;;;;;5072697;28;20770;-47
2022/08/25 09:13:15;;;;;;;4.20;1.98;;;26.40;85.70;;;;;;5072249;28;20090;-47
2022/08/25 09:19:07;;;;;;;;;;;26.50;84.10;;;;;;5053350;28;20459;-49
2022/08/25 09:21:50;;;;;;;4.00;1.75;;;26.60;84.50;;;;;;5058863;28;19916;-49
2022/08/25 09:24:31;;;;;;;447.25;33.80;;;26.60;84.80;;;;;;5041966;28;20053;-46
2022/08/25 09:27:09;;;;;;;7.22;1.58;;;26.70;84.20;;;;;;5071778;28;20409;-47
2022/08/25 09:29:45;;;;;;;6.00;2.20;;;26.80;83.00;;;;;;5072966;28;20093;-48
2022/08/25 09:32:10;;;;;;;2.47;1.65;;;26.80;82.10;;;;;;5072207;28;20045;-48
2022/08/25 09:34:36;;;;;;;4.47;1.52;;;26.90;82.00;;;;;;5072562;28;20039;-48
2022/08/25 09:37:02;;;;;;;7.50;1.83;;;27.00;81.80;;;;;;5072177;28;20517;-46
2022/08/25 09:39:27;;;;;;;4.68;1.45;;;27.00;81.30;;;;;;5072108;28;20040;-47
2022/08/25 09:41:56;;;;;;;3.42;1.30;;;27.10;80.10;;;;;;5072496;28;20032;-47
2022/08/25 09:44:24;;;;;;;5.75;1.90;;;27.20;79.70;;;;;;5072119;28;20044;-47
2022/08/25 09:47:06;;;;;;;6.10;1.67;;;27.20;80.40;;;;;;5071995;28;20494;-46
2022/08/25 09:49:39;;;;;;;2.50;1.55;;;27.30;78.10;;;;;;5072355;28;20075;-49
2022/08/25 09:52:22;;;;;;;6.00;1.90;;;27.40;78.00;;;;;;5071771;28;20044;-47
2022/08/25 09:54:49;;;;;;;5.00;1.38;;;27.50;77.20;;;;;;5071263;28;20421;-47
2022/08/25 09:57:30;;;;;;;6.30;1.90;;;27.50;76.40;;;;;;5072225;28;20029;-47
2022/08/25 09:59:55;;;;;;;13.30;1.63;;;27.50;74.60;;;;;;5071889;28;20032;-47
2022/08/25 10:02:28;;;;;;;5.35;1.63;;;27.60;75.30;;;;;;5071441;28;20498;-47
2022/08/25 10:04:54;;;;;;;7.07;1.75;;;27.70;75.50;;;;;;5071963;28;20036;-47
2022/08/25 10:07:28;;;;;;;2.85;1.23;;;27.80;76.00;;;;;;5053877;28;20055;-46
2022/08/25 10:09:57;;;;;;;9.95;1.90;;;27.80;74.80;;;;;;5072089;28;20045;-47
2022/08/25 10:12:43;;;;;;;5.43;1.55;;;27.90;74.20;;;;;;5071174;28;20083;-46
2022/08/25 10:15:34;;;;;;;7.70;1.38;;;27.90;75.10;;;;;;5072039;28;20111;-47
2022/08/25 10:18:25;;;;;;;4.72;1.50;;;28.00;71.90;;;;;;5071747;28;20047;-48
2022/08/25 10:21:00;;;;;;;9.48;1.77;;;28.00;73.40;;;;;;5071775;28;20036;-47
2022/08/25 10:23:26;;;;;;;2.97;1.17;;;28.10;73.00;;;;;;5070370;28;20040;-49
2022/08/25 10:25:53;;;;;;;4.90;1.35;;;28.20;73.40;;;;;;5068983;28;20109;-47
2022/08/25 10:28:31;;;;;;;8.90;1.45;;;28.20;72.70;;;;;;5071135;28;20078;-47
2022/08/25 10:31:01;;;;;;;6.18;1.20;;;28.30;71.60;;;;;;5071249;28;20048;-46
2022/08/25 10:34:06;;;;;;;3.92;1.38;;;28.30;71.40;;;;;;5066415;28;20486;-47
2022/08/25 10:36:55;;;;;;;4.15;1.30;;;28.30;71.50;;;;;;5052177;28;20132;-46
2022/08/25 10:39:33;;;;;;;5.30;1.45;;;28.40;71.80;;;;;;5069020;28;20040;-47
2022/08/25 10:42:13;;;;;;;11.07;1.80;;;28.50;71.80;;;;;;5071967;28;20105;-47
2022/08/25 10:47:45;;;;;;;3.40;1.50;;;28.50;69.70;;;;;;5071065;28;20048;-48
2022/08/25 10:50:22;;;;;;;2.25;1.33;;;28.60;69.20;;;;;;5070318;28;20036;-47
2022/08/25 10:53:09;;;;;;;2.92;1.40;;;28.70;69.10;;;;;;5066261;28;20036;-47
2022/08/25 10:55:42;;;;;;;7.50;1.58;;;28.70;70.60;;;;;;5071378;28;20044;-46
2022/08/25 10:58:28;;;;;;;2.53;1.05;;;28.80;68.60;;;;;;5068638;28;20090;-47
2022/08/25 11:01:18;;;;;;;5.00;1.27;;;28.80;68.90;;;;;;5051307;28;20097;-46
2022/08/25 11:03:49;;;;;;;9.50;2.30;;;28.80;68.50;;;;;;5059711;28;20079;-48
2022/08/25 11:06:39;;;;;;;3.33;0.93;;;28.80;67.80;;;;;;5070297;28;20060;-47
2022/08/25 11:09:09;;;;;;;3.05;0.88;;;28.80;68.90;;;;;;5070229;28;20051;-46
2022/08/25 11:11:37;;;;;;;5.18;1.55;;;28.90;67.40;;;;;;5070116;28;20095;-47
2022/08/25 11:14:18;;;;;;;5.47;1.25;;;28.90;67.30;;;;;;5069913;28;20036;-46
2022/08/25 11:16:52;;;;;;;5.60;0.98;;;29.00;67.60;;;;;;5069576;28;20040;-47
2022/08/25 11:19:29;;;;;;;3.10;0.88;;;29.00;65.60;;;;;;5070119;28;20047;-47
2022/08/25 11:22:18;;;;;;;3.45;1.00;;;29.00;63.90;;;;;;5069840;28;20040;-48
2022/08/25 11:25:13;;;;;;;6.05;1.20;;;29.10;64.60;;;;;;5070367;28;20043;-47
2022/08/25 11:28:10;;;;;;;5.45;0.98;;;29.20;63.90;;;;;;5070138;28;20055;-46
2022/08/25 11:30:37;;;;;;;3.90;0.90;;;29.30;63.90;;;;;;5070441;28;20050;-47
2022/08/25 11:33:03;;;;;;;1.10;0.88;;;29.30;63.00;;;;;;5070105;28;20502;-48
2022/08/25 11:35:41;;;;;;;3.97;1.63;;;29.30;63.50;;;;;;5068388;28;20520;-47
2022/08/25 11:38:29;;;;;;;3.97;0.90;;;29.40;63.80;;;;;;5069492;28;20037;-47
2022/08/25 11:41:22;;;;;;;8.88;1.20;;;29.40;63.90;;;;;;5070615;28;20041;-47
2022/08/25 11:44:00;;;;;;;5.40;1.15;;;29.50;63.90;;;;;;5069835;28;20041;-46
2022/08/25 11:46:51;;;;;;;2.63;1.08;;;29.40;64.70;;;;;;5069490;28;20059;-47
2022/08/25 11:49:20;;;;;;;5.15;1.20;;;29.50;62.70;;;;;;5064001;28;20033;-48
2022/08/25 11:51:47;;;;;;;5.97;1.10;;;29.50;62.60;;;;;;5051851;28;20448;-47
2022/08/25 11:54:16;;;;;;;3.30;0.63;;;29.50;62.30;;;;;;5049736;28;20025;-47
2022/08/25 11:57:09;;;;;;;4.25;1.10;;;29.50;62.40;;;;;;5056668;28;20033;-47
2022/08/25 11:59:50;;;;;;;2.80;1.00;;;29.50;62.60;;;;;;5050274;28;20051;-48
2022/08/25 12:02:37;;;;;;;3.63;1.23;;;29.50;62.40;;;;;;5050199;28;20048;-46
2022/08/25 12:05:11;;;;;;;1.73;0.70;;;29.60;63.10;;;;;;5067209;28;20524;-49
2022/08/25 12:11:05;;;;;;;1.60;0.85;;;29.70;63.30;;;;;;5090364;28;20048;-47
2022/08/25 12:13:39;;;;;;;4.93;1.08;;;29.70;62.80;;;;;;5068320;28;20456;-47
2022/08/25 12:16:07;;;;;;;4.32;1.35;;;29.80;62.70;;;;;;5067145;28;20036;-46
2022/08/25 12:18:41;;;;;;;4.00;1.20;;;29.80;62.20;;;;;;5070053;28;20386;-46
2022/08/25 12:21:07;;;;;;;3.85;0.77;;;29.80;62.50;;;;;;5070008;28;20500;-47
2022/08/25 12:23:44;;;;;;;4.97;1.73;;;29.90;63.00;;;;;;5069798;28;20041;-47
2022/08/25 12:26:47;;;;;;;3.03;1.10;;;29.90;63.10;;;;;;5068594;28;20044;-48
2022/08/25 12:29:34;;;;;;;3.63;1.05;;;29.90;62.00;;;;;;5070006;28;20547;-47
2022/08/25 12:32:14;;;;;;;7.05;1.20;;;30.00;62.20;;;;;;5069899;28;20059;-48
2022/08/25 12:35:08;;;;;;;5.90;1.00;;;30.00;60.30;;;;;;5069909;28;20123;-47
2022/08/25 12:38:03;;;;;;;3.45;1.02;;;30.10;59.80;;;;;;5069832;28;20113;-47
2022/08/25 12:40:56;;;;;;;3.78;1.17;;;30.10;59.00;;;;;;5069672;28;20120;-47
2022/08/25 12:43:27;;;;;;;3.00;1.25;;;30.10;60.00;;;;;;5069499;28;20039;-47
2022/08/25 12:46:18;;;;;;;2.58;0.82;;;30.10;58.90;;;;;;5069588;28;20544;-47
2022/08/25 12:49:21;;;;;;;11.98;1.65;;;30.10;59.30;;;;;;5069543;28;20036;-47
2022/08/25 12:51:55;;;;;;;4.97;1.23;;;30.20;58.40;;;;;;5066443;28;20056;-47
2022/08/25 12:54:23;;;;;;;2.45;1.00;;;30.20;59.20;;;;;;5069592;28;20415;-47
2022/08/25 12:56:59;;;;;;;2.20;1.52;;;30.20;59.30;;;;;;5069692;28;20518;-48
2022/08/25 12:59:33;;;;;;;;;;;30.20;59.10;;;;;;5070244;28;20036;-46
2022/08/25 13:02:30;;;;;;;3.92;1.20;;;30.20;60.50;;;;;;5069449;28;19943;-47
2022/08/25 13:05:19;;;;;;;2.47;0.90;;;30.20;59.20;;;;;;5069389;28;20559;-46
2022/08/25 13:08:01;;;;;;;1.85;0.90;;;30.30;57.70;;;;;;5068935;28;20048;-48
2022/08/25 13:10:53;;;;;;;3.35;1.25;;;30.30;58.00;;;;;;5069945;28;20029;-46
2022/08/25 13:14:03;;;;;;;1.50;0.85;;;30.30;59.10;;;;;;5067249;28;20068;-46
2022/08/25 13:16:29;;;;;;;3.97;1.15;;;30.30;57.50;;;;;;5069621;28;20039;-47
2022/08/25 13:18:58;;;;;;;2.30;0.90;;;30.40;58.40;;;;;;5068556;28;20037;-47
2022/08/25 13:21:34;;;;;;;5.72;1.17;;;30.50;57.70;;;;;;5068538;28;20036;-50
2022/08/25 13:24:01;;;;;;;1.10;1.00;;;30.50;57.40;;;;;;5058770;28;20040;-47
2022/08/25 13:26:36;;;;;;;2.33;1.25;;;30.40;57.70;;;;;;5068376;28;20119;-48
2022/08/25 13:29:07;;;;;;;4.95;1.02;;;30.40;57.00;;;;;;5071561;28;20052;-47
2022/08/25 13:31:37;;;;;;;2.83;0.80;;;30.50;57.70;;;;;;5072804;28;20492;-47